DEEDL EDFZ-EDFA
Flight info
| Callsign | DEEDL |
|---|---|
| Flight time | N/A |
| Altitude | 1500 |
| Route | DCT |
| Aircraft | C172/L-VGDW/C |
Departure
| Time | 2026-04-23 09:28 |
|---|---|
| Airport | Mainz-Finthen Airfield (EDFZ) |
Arrival
| Time | N/A |
|---|---|
| Airport | EDFA |
| Time | Latitude | Longitude | Altitude | Speed | Heading |
|---|---|---|---|---|---|
| 2026-04-23 09:22 | 49.97154 | 8.15023 | 760 ft | 0 kts | 256° |
| 2026-04-23 09:24 | 49.97142 | 8.15006 | 758 ft | 6 kts | 182° |
| 2026-04-23 09:25 | 49.97101 | 8.15000 | 758 ft | 7 kts | 261° |
| 2026-04-23 09:25 | 49.97084 | 8.14898 | 760 ft | 11 kts | 253° |
| 2026-04-23 09:25 | 49.97059 | 8.14763 | 761 ft | 15 kts | 254° |
| 2026-04-23 09:25 | 49.97026 | 8.14577 | 759 ft | 20 kts | 255° |
| 2026-04-23 09:26 | 49.96988 | 8.14362 | 761 ft | 20 kts | 254° |
| 2026-04-23 09:26 | 49.96953 | 8.14168 | 759 ft | 18 kts | 254° |
| 2026-04-23 09:26 | 49.96869 | 8.14090 | 761 ft | 16 kts | 164° |
| 2026-04-23 09:26 | 49.96802 | 8.14155 | 760 ft | 8 kts | 70° |
| 2026-04-23 09:27 | 49.96863 | 8.14496 | 761 ft | 71 kts | 75° |
| 2026-04-23 09:27 | 49.97044 | 8.15448 | 904 ft | 105 kts | 73° |
| 2026-04-23 09:27 | 49.97270 | 8.16629 | 1050 ft | 122 kts | 74° |
| 2026-04-23 09:27 | 49.97418 | 8.17972 | 1083 ft | 126 kts | 101° |
| 2026-04-23 09:28 | 49.96897 | 8.18873 | 1090 ft | 113 kts | 166° |
| 2026-04-23 09:28 | 49.96161 | 8.18718 | 1109 ft | 105 kts | 198° |
| 2026-04-23 09:28 | 49.95536 | 8.18280 | 1235 ft | 94 kts | 222° |
| 2026-04-23 09:28 | 49.95209 | 8.17453 | 1366 ft | 90 kts | 251° |
| 2026-04-23 09:29 | 49.94980 | 8.16361 | 1458 ft | 120 kts | 256° |
| 2026-04-23 09:29 | 49.94744 | 8.15031 | 1490 ft | 132 kts | 257° |
| 2026-04-23 09:29 | 49.94513 | 8.13659 | 1491 ft | 130 kts | 257° |
| 2026-04-23 09:29 | 49.94295 | 8.12299 | 1490 ft | 129 kts | 258° |
| 2026-04-23 09:30 | 49.94400 | 8.10976 | 1491 ft | 127 kts | 307° |
| 2026-04-23 09:30 | 49.95145 | 8.10300 | 1498 ft | 126 kts | 343° |
| 2026-04-23 09:30 | 49.96004 | 8.10076 | 1496 ft | 126 kts | 354° |
| 2026-04-23 09:30 | 49.96872 | 8.09956 | 1492 ft | 125 kts | 356° |
| 2026-04-23 09:31 | 49.97741 | 8.09870 | 1504 ft | 125 kts | 358° |
| 2026-04-23 09:31 | 49.98600 | 8.09795 | 1500 ft | 125 kts | 358° |
| 2026-04-23 09:31 | 49.99488 | 8.09722 | 1503 ft | 131 kts | 358° |
| 2026-04-23 09:31 | 50.00394 | 8.09651 | 1654 ft | 130 kts | 358° |
| 2026-04-23 09:32 | 50.01299 | 8.09580 | 1786 ft | 130 kts | 358° |
| 2026-04-23 09:32 | 50.02196 | 8.09509 | 1910 ft | 128 kts | 358° |
| 2026-04-23 09:32 | 50.03089 | 8.09439 | 2066 ft | 129 kts | 358° |
| 2026-04-23 09:32 | 50.03992 | 8.09365 | 2190 ft | 129 kts | 358° |
| 2026-04-23 09:33 | 50.04887 | 8.09292 | 2320 ft | 129 kts | 359° |
| 2026-04-23 09:33 | 50.05748 | 8.09510 | 2404 ft | 128 kts | 19° |
| 2026-04-23 09:33 | 50.06597 | 8.09993 | 2451 ft | 132 kts | 21° |
| 2026-04-23 09:33 | 50.07448 | 8.10531 | 2479 ft | 133 kts | 23° |
| 2026-04-23 09:34 | 50.08306 | 8.11088 | 2500 ft | 134 kts | 23° |
| 2026-04-23 09:34 | 50.09164 | 8.11673 | 2514 ft | 135 kts | 28° |
| 2026-04-23 09:34 | 50.09724 | 8.12826 | 2509 ft | 138 kts | 66° |
| 2026-04-23 09:34 | 50.10082 | 8.14216 | 2505 ft | 139 kts | 69° |
| 2026-04-23 09:35 | 50.10417 | 8.15628 | 2503 ft | 139 kts | 69° |
| 2026-04-23 09:35 | 50.10738 | 8.17043 | 2490 ft | 138 kts | 69° |
| 2026-04-23 09:35 | 50.11053 | 8.18447 | 2489 ft | 137 kts | 70° |
| 2026-04-23 09:35 | 50.11363 | 8.19849 | 2493 ft | 137 kts | 70° |
| 2026-04-23 09:36 | 50.11677 | 8.21247 | 2493 ft | 137 kts | 70° |
| 2026-04-23 09:36 | 50.11985 | 8.22651 | 2502 ft | 137 kts | 70° |
| 2026-04-23 09:36 | 50.12290 | 8.24058 | 2505 ft | 137 kts | 70° |
| 2026-04-23 09:36 | 50.12596 | 8.25469 | 2514 ft | 138 kts | 71° |
| 2026-04-23 09:37 | 50.12891 | 8.26876 | 2512 ft | 138 kts | 70° |
| 2026-04-23 09:37 | 50.13196 | 8.28324 | 2506 ft | 138 kts | 70° |
| 2026-04-23 09:37 | 50.13506 | 8.29754 | 2549 ft | 141 kts | 70° |
| 2026-04-23 09:37 | 50.13810 | 8.31192 | 2563 ft | 142 kts | 70° |
| 2026-04-23 09:38 | 50.14125 | 8.32652 | 2520 ft | 141 kts | 70° |
| 2026-04-23 09:38 | 50.14426 | 8.34096 | 2512 ft | 140 kts | 69° |
| 2026-04-23 09:38 | 50.14729 | 8.35542 | 2562 ft | 142 kts | 69° |
| 2026-04-23 09:38 | 50.15087 | 8.36956 | 2500 ft | 137 kts | 50° |
| 2026-04-23 09:39 | 50.15881 | 8.37707 | 2496 ft | 133 kts | 24° |
| 2026-04-23 09:39 | 50.16752 | 8.38205 | 2498 ft | 133 kts | 18° |
| 2026-04-23 09:39 | 50.17640 | 8.38646 | 2499 ft | 134 kts | 17° |
| 2026-04-23 09:39 | 50.18541 | 8.39049 | 2504 ft | 135 kts | 12° |
| 2026-04-23 09:40 | 50.19466 | 8.39238 | 2499 ft | 134 kts | 6° |
| 2026-04-23 09:40 | 50.20386 | 8.39351 | 2484 ft | 131 kts | 4° |
| 2026-04-23 09:40 | 50.21292 | 8.39445 | 2496 ft | 131 kts | 3° |
| 2026-04-23 09:40 | 50.22201 | 8.39536 | 2514 ft | 133 kts | 4° |
| 2026-04-23 09:41 | 50.23097 | 8.39849 | 2507 ft | 135 kts | 30° |
| 2026-04-23 09:41 | 50.23898 | 8.40642 | 2536 ft | 137 kts | 32° |
| 2026-04-23 09:41 | 50.24689 | 8.41475 | 2518 ft | 137 kts | 34° |
| 2026-04-23 09:41 | 50.25466 | 8.42329 | 2514 ft | 137 kts | 36° |
| 2026-04-23 09:42 | 50.26056 | 8.43487 | 2516 ft | 140 kts | 67° |
| 2026-04-23 09:42 | 50.26421 | 8.44894 | 2493 ft | 140 kts | 68° |
| 2026-04-23 09:42 | 50.26754 | 8.46328 | 2463 ft | 139 kts | 70° |
| 2026-04-23 09:42 | 50.27040 | 8.47627 | 2416 ft | 103 kts | 68° |
| 2026-04-23 09:43 | 50.27222 | 8.48536 | 2358 ft | 78 kts | 66° |
| 2026-04-23 09:43 | 50.27419 | 8.49354 | 2138 ft | 83 kts | 70° |
| 2026-04-23 09:43 | 50.27605 | 8.50141 | 1946 ft | 72 kts | 65° |
| 2026-04-23 09:43 | 50.27820 | 8.50891 | 1618 ft | 78 kts | 62° |
| 2026-04-23 09:44 | 50.28086 | 8.51626 | 1435 ft | 77 kts | 58° |
| 2026-04-23 09:44 | 50.28380 | 8.52333 | 1277 ft | 77 kts | 57° |
| 2026-04-23 09:44 | 50.28668 | 8.52998 | 1127 ft | 63 kts | 56° |
| 2026-04-23 09:44 | 50.28860 | 8.53434 | 1103 ft | 38 kts | 56° |
| 2026-04-23 09:45 | 50.28979 | 8.53720 | 1091 ft | 28 kts | 68° |
| 2026-04-23 09:45 | 50.29037 | 8.53920 | 1086 ft | 8 kts | 58° |
| 2026-04-23 09:45 | 50.29039 | 8.53924 | 1086 ft | 0 kts | 57° |